Time;durP1;ratioP1;P1;durP2;ratioP2;P2;SDS_P1;SDS_P2;PMS_P1;PMS_P2;Temp;Humidity;BMP_temperature;BMP_pressure;BME280_temperature;BME280_humidity;BME280_pressure;Samples;Min_cycle;Max_cycle;Signal;HPM_P1;HPM_P2
2022/12/24 00:00:31;;;;;;;4.28;1.60;;;9.60;99.90;;;;;;5071037;28;20032;-45
2022/12/24 00:02:56;;;;;;;6.07;2.00;;;9.60;99.90;;;;;;5070845;28;20108;-45
2022/12/24 00:05:22;;;;;;;6.43;1.83;;;9.60;99.90;;;;;;5070902;28;20548;-47
2022/12/24 00:07:47;;;;;;;4.30;1.58;;;9.60;99.90;;;;;;5070394;28;20518;-46
2022/12/24 00:10:13;;;;;;;7.38;1.80;;;9.60;99.90;;;;;;5073170;28;20017;-45
2022/12/24 00:12:39;;;;;;;4.60;1.65;;;9.60;99.90;;;;;;5072839;28;20056;-45
2022/12/24 00:15:06;;;;;;;3.83;1.52;;;9.60;99.90;;;;;;5070985;28;20045;-45
2022/12/24 00:17:31;;;;;;;3.95;1.92;;;9.60;99.90;;;;;;5070471;28;20491;-45
2022/12/24 00:19:57;;;;;;;7.00;1.60;;;9.60;99.90;;;;;;5070779;28;20052;-46
2022/12/24 00:22:23;;;;;;;8.00;1.60;;;9.60;99.90;;;;;;5070579;28;20500;-45
2022/12/24 00:24:49;;;;;;;3.70;1.33;;;9.60;99.90;;;;;;5070912;28;20032;-47
2022/12/24 00:27:14;;;;;;;4.68;1.75;;;9.60;99.90;;;;;;5069069;28;20029;-45
2022/12/24 00:29:40;;;;;;;4.63;1.70;;;9.60;99.90;;;;;;5070730;28;20572;-45
2022/12/24 00:32:09;;;;;;;7.28;2.03;;;9.60;99.90;;;;;;5070658;28;20037;-46
2022/12/24 00:34:38;;;;;;;5.10;1.73;;;9.60;99.90;;;;;;5070612;28;20020;-47
2022/12/24 00:37:05;;;;;;;4.07;1.70;;;9.60;99.90;;;;;;5073791;28;20081;-46
2022/12/24 00:39:31;;;;;;;4.43;1.75;;;9.60;99.90;;;;;;5075056;28;20028;-45
2022/12/24 00:41:57;;;;;;;6.82;1.80;;;9.60;99.90;;;;;;5075207;28;20029;-45
2022/12/24 00:44:23;;;;;;;3.70;1.65;;;9.60;99.90;;;;;;5075584;28;20063;-46
2022/12/24 00:46:49;;;;;;;4.13;1.65;;;9.60;99.90;;;;;;5073992;28;20557;-45
2022/12/24 00:49:15;;;;;;;4.90;1.75;;;9.60;99.90;;;;;;5074070;28;20103;-47
2022/12/24 00:51:41;;;;;;;4.07;1.45;;;9.60;99.90;;;;;;5073951;28;20099;-45
2022/12/24 00:54:07;;;;;;;4.88;1.80;;;9.50;99.90;;;;;;5073919;28;20482;-46
2022/12/24 00:56:32;;;;;;;6.28;1.95;;;9.50;99.90;;;;;;5073727;28;20062;-45
2022/12/24 00:58:58;;;;;;;6.55;1.95;;;9.60;99.90;;;;;;5073938;28;20032;-45
2022/12/24 01:01:25;;;;;;;6.00;1.80;;;9.60;99.90;;;;;;5074970;28;20027;-46
2022/12/24 01:03:51;;;;;;;4.47;1.77;;;9.50;99.90;;;;;;5074068;28;20025;-47
2022/12/24 01:06:19;;;;;;;5.63;1.98;;;9.60;99.90;;;;;;5074566;28;20036;-47
2022/12/24 01:08:45;;;;;;;3.85;1.38;;;9.60;99.90;;;;;;5077963;28;20021;-45
2022/12/24 01:11:12;;;;;;;5.20;1.60;;;9.60;99.90;;;;;;5073597;28;20016;-45
2022/12/24 01:13:38;;;;;;;4.43;1.73;;;9.50;99.90;;;;;;5073516;28;20036;-46
2022/12/24 01:16:13;;;;;;;4.68;1.60;;;9.50;99.90;;;;;;5073244;28;20082;-45
2022/12/24 01:18:38;;;;;;;3.10;1.58;;;9.60;99.90;;;;;;5073575;28;20562;-45
2022/12/24 01:21:04;;;;;;;4.03;1.40;;;9.50;99.90;;;;;;5074300;28;20166;-45
2022/12/24 01:23:30;;;;;;;3.72;1.50;;;9.50;99.90;;;;;;5073354;28;20162;-46
2022/12/24 01:26:00;;;;;;;3.50;1.65;;;9.60;99.90;;;;;;5073128;28;20021;-45
2022/12/24 01:28:26;;;;;;;4.28;1.52;;;9.60;99.90;;;;;;5073304;28;20025;-45
2022/12/24 01:30:52;;;;;;;4.15;1.83;;;9.50;99.90;;;;;;5076362;28;20331;-44
2022/12/24 01:33:18;;;;;;;4.90;1.98;;;9.50;99.90;;;;;;5073557;28;20433;-44
2022/12/24 01:35:44;;;;;;;4.88;1.45;;;9.50;99.90;;;;;;5073203;28;20441;-46
2022/12/24 01:38:10;;;;;;;6.72;1.90;;;9.50;99.90;;;;;;5073019;28;20506;-45
2022/12/24 01:43:23;;;;;;;5.50;1.58;;;9.50;99.90;;;;;;5073254;28;20086;-45
2022/12/24 01:45:53;;;;;;;4.97;1.70;;;9.50;99.90;;;;;;5072824;28;20021;-47
2022/12/24 01:48:37;;;;;;;6.32;1.85;;;9.50;99.90;;;;;;5072166;28;20020;-46
2022/12/24 01:51:08;;;;;;;5.18;1.92;;;9.50;99.90;;;;;;5072808;28;20394;-46
2022/12/24 01:53:36;;;;;;;5.53;1.52;;;9.50;99.90;;;;;;5072917;28;20031;-46
2022/12/24 01:56:03;;;;;;;5.85;1.80;;;9.50;99.90;;;;;;5072427;28;20082;-45
2022/12/24 01:58:30;;;;;;;6.50;1.95;;;9.50;99.90;;;;;;5075610;28;20029;-46
2022/12/24 02:00:56;;;;;;;7.13;1.88;;;9.50;99.90;;;;;;5073640;28;20063;-45
2022/12/24 02:03:22;;;;;;;5.47;1.83;;;9.50;99.90;;;;;;5073217;28;20078;-45
2022/12/24 02:05:54;;;;;;;4.80;1.63;;;9.50;99.90;;;;;;5072306;28;20029;-46
2022/12/24 02:08:38;;;;;;;5.40;1.73;;;9.50;99.90;;;;;;5072568;28;20020;-45
2022/12/24 02:11:19;;;;;;;5.80;1.67;;;9.50;99.90;;;;;;5072527;28;20066;-45
2022/12/24 02:13:55;;;;;;;5.75;1.73;;;9.50;99.90;;;;;;5072774;28;20417;-45
2022/12/24 02:16:45;;;;;;;6.10;1.92;;;9.50;99.90;;;;;;5074254;28;20355;-45
2022/12/24 02:19:35;;;;;;;4.50;1.88;;;9.50;99.90;;;;;;5072327;28;20557;-45
2022/12/24 02:22:13;;;;;;;4.10;1.30;;;9.50;99.90;;;;;;5073453;28;20501;-45
2022/12/24 02:24:59;;;;;;;6.35;2.15;;;9.50;99.90;;;;;;5072454;28;20371;-45
2022/12/24 02:27:36;;;;;;;5.32;1.77;;;9.50;99.90;;;;;;5071272;28;20084;-44
2022/12/24 02:30:07;;;;;;;4.65;1.52;;;9.50;99.90;;;;;;5072154;28;20022;-45
2022/12/24 02:32:52;;;;;;;5.00;1.77;;;9.50;99.90;;;;;;5072126;28;20024;-45
2022/12/24 02:35:41;;;;;;;6.75;1.50;;;9.50;99.90;;;;;;5072348;28;20028;-46
2022/12/24 02:38:20;;;;;;;5.45;1.55;;;9.50;99.90;;;;;;5072047;28;20028;-46
2022/12/24 02:40:55;;;;;;;5.15;1.88;;;9.50;99.90;;;;;;5071993;28;20032;-45
2022/12/24 02:43:25;;;;;;;6.78;1.83;;;9.50;99.90;;;;;;5071777;28;20036;-45
2022/12/24 02:45:59;;;;;;;3.67;1.70;;;9.50;99.90;;;;;;5072450;28;20330;-45
2022/12/24 02:48:26;;;;;;;6.47;2.10;;;9.50;99.90;;;;;;5071818;28;20020;-46
2022/12/24 02:51:02;;;;;;;3.97;1.60;;;9.50;99.90;;;;;;5072308;28;20111;-47
2022/12/24 02:53:29;;;;;;;3.65;1.67;;;9.50;99.90;;;;;;5073861;28;20032;-46
2022/12/24 02:56:33;;;;;;;5.72;1.35;;;9.50;99.90;;;;;;5071337;28;20595;-46
2022/12/24 02:59:33;;;;;;;6.07;2.07;;;9.50;99.90;;;;;;5071830;28;20036;-46
2022/12/24 03:02:11;;;;;;;2.92;1.52;;;9.50;99.90;;;;;;5071570;28;20108;-46
2022/12/24 03:05:06;;;;;;;5.70;1.90;;;9.50;99.90;;;;;;5071475;28;20056;-45
2022/12/24 03:07:53;;;;;;;5.88;1.90;;;9.50;99.90;;;;;;5016304;28;20038;-47
2022/12/24 03:10:35;;;;;;;7.70;2.20;;;9.50;99.90;;;;;;5071265;28;20110;-45
2022/12/24 03:13:06;;;;;;;9.85;2.08;;;9.50;99.90;;;;;;5071348;28;20500;-45
2022/12/24 03:15:35;;;;;;;5.25;1.77;;;9.50;99.90;;;;;;5071398;28;20490;-45
2022/12/24 03:18:02;;;;;;;5.53;1.63;;;9.50;99.90;;;;;;5071122;28;20024;-45
2022/12/24 03:20:37;;;;;;;6.35;2.00;;;9.50;99.90;;;;;;5071430;28;20025;-45
2022/12/24 03:23:03;;;;;;;7.70;1.98;;;9.50;99.90;;;;;;5072734;28;20031;-45
2022/12/24 03:25:32;;;;;;;5.47;1.70;;;9.50;99.90;;;;;;5071268;28;20017;-46
2022/12/24 03:28:03;;;;;;;4.90;1.63;;;9.50;99.90;;;;;;5070991;28;20024;-45
2022/12/24 03:30:29;;;;;;;5.40;1.83;;;9.50;99.90;;;;;;5071293;28;20508;-46
2022/12/24 03:32:54;;;;;;;6.53;1.73;;;9.50;99.90;;;;;;5071127;28;20040;-44
2022/12/24 03:35:20;;;;;;;6.85;2.13;;;9.50;99.90;;;;;;5071215;28;20584;-47
2022/12/24 03:37:46;;;;;;;5.85;2.05;;;9.50;99.90;;;;;;5070963;28;20025;-45
2022/12/24 03:40:12;;;;;;;6.10;1.80;;;9.50;99.90;;;;;;5072232;28;20036;-45
2022/12/24 03:42:37;;;;;;;4.88;1.90;;;9.50;99.90;;;;;;5070415;28;20078;-45
2022/12/24 03:45:03;;;;;;;5.22;1.90;;;9.50;99.90;;;;;;5070950;28;20028;-46
2022/12/24 03:47:30;;;;;;;4.97;1.50;;;9.50;99.90;;;;;;5070799;28;20030;-45
2022/12/24 03:49:56;;;;;;;3.80;1.55;;;9.50;99.90;;;;;;5071051;28;20485;-45
2022/12/24 03:52:21;;;;;;;6.72;1.60;;;9.50;99.90;;;;;;5071076;28;20032;-45
2022/12/24 03:54:47;;;;;;;6.22;1.75;;;9.40;99.90;;;;;;5070876;28;20036;-45
2022/12/24 03:57:15;;;;;;;4.75;1.70;;;9.40;99.90;;;;;;5070791;28;20071;-45
2022/12/24 03:59:41;;;;;;;4.82;1.50;;;9.40;99.90;;;;;;5069481;28;20401;-46
2022/12/24 04:02:07;;;;;;;4.40;1.55;;;9.40;99.90;;;;;;5070906;28;20028;-46
2022/12/24 04:04:35;;;;;;;5.38;1.77;;;9.40;99.90;;;;;;5070828;28;20032;-46
2022/12/24 04:07:01;;;;;;;6.03;2.13;;;9.50;99.90;;;;;;5070864;28;20084;-45
2022/12/24 04:09:27;;;;;;;4.38;1.73;;;9.40;99.90;;;;;;5070408;28;20025;-46
2022/12/24 04:11:52;;;;;;;5.15;1.55;;;9.40;99.90;;;;;;5074266;28;20021;-46
2022/12/24 04:14:18;;;;;;;5.15;1.40;;;9.40;99.90;;;;;;5074929;28;20443;-45
2022/12/24 04:16:43;;;;;;;6.43;1.92;;;9.50;99.90;;;;;;5074392;28;20032;-45
2022/12/24 04:19:09;;;;;;;6.93;1.60;;;9.40;99.90;;;;;;5074623;28;20055;-45
2022/12/24 04:21:35;;;;;;;7.97;1.77;;;9.40;99.90;;;;;;5074603;28;20478;-45
2022/12/24 04:24:00;;;;;;;3.47;1.40;;;9.40;99.90;;;;;;5074327;28;20525;-45
2022/12/24 04:26:26;;;;;;;7.55;1.90;;;9.40;99.90;;;;;;5074135;28;20114;-45
2022/12/24 04:28:52;;;;;;;6.55;1.60;;;9.40;99.90;;;;;;5074463;28;20032;-45
2022/12/24 04:31:17;;;;;;;7.03;1.67;;;9.40;99.90;;;;;;5074448;28;20094;-45
2022/12/24 04:33:46;;;;;;;6.78;1.90;;;9.40;99.90;;;;;;5074595;28;20032;-45
2022/12/24 04:36:15;;;;;;;7.03;1.55;;;9.40;99.90;;;;;;5074661;28;20025;-45
2022/12/24 04:38:41;;;;;;;8.32;1.85;;;9.40;99.90;;;;;;5074227;28;20028;-46
2022/12/24 04:41:12;;;;;;;8.43;2.42;;;9.40;99.90;;;;;;5074191;28;20501;-45
2022/12/24 04:43:37;;;;;;;8.48;1.88;;;9.40;99.90;;;;;;5074132;28;20374;-45
2022/12/24 04:46:13;;;;;;;6.45;1.80;;;9.40;99.90;;;;;;5073873;28;20077;-45
2022/12/24 04:48:39;;;;;;;6.85;1.55;;;9.40;99.90;;;;;;5074955;28;20017;-46
2022/12/24 04:51:08;;;;;;;4.53;1.77;;;9.40;99.90;;;;;;5074331;28;20020;-45
2022/12/24 04:53:35;;;;;;;8.45;2.30;;;9.40;99.90;;;;;;5074134;28;20082;-45
2022/12/24 04:56:02;;;;;;;5.35;1.80;;;9.40;99.90;;;;;;5073563;28;20040;-45
2022/12/24 04:58:28;;;;;;;3.63;1.80;;;9.40;99.90;;;;;;5073918;28;20108;-45
2022/12/24 05:00:54;;;;;;;5.80;1.80;;;9.40;99.90;;;;;;5073916;28;20100;-45
2022/12/24 05:03:20;;;;;;;5.93;2.10;;;9.40;99.90;;;;;;5074797;28;20025;-46
2022/12/24 05:05:46;;;;;;;9.23;1.98;;;9.40;99.90;;;;;;5073508;28;20024;-46
2022/12/24 05:08:15;;;;;;;9.82;2.05;;;9.40;99.90;;;;;;5075048;28;20020;-45
2022/12/24 05:10:41;;;;;;;5.82;1.95;;;9.40;99.90;;;;;;5073392;28;20016;-45
2022/12/24 05:13:06;;;;;;;8.90;2.30;;;9.40;99.90;;;;;;5073928;28;20470;-45
2022/12/24 05:15:32;;;;;;;7.55;2.40;;;9.40;99.90;;;;;;5073608;28;20218;-45
2022/12/24 05:17:57;;;;;;;4.78;1.50;;;9.40;99.90;;;;;;5073242;28;20463;-45
2022/12/24 05:20:24;;;;;;;8.07;2.13;;;9.40;99.90;;;;;;5074577;28;20032;-46
2022/12/24 05:28:23;;;;;;;6.93;2.20;;;9.40;99.90;;;;;;5073308;28;20031;-45
2022/12/24 05:30:49;;;;;;;8.52;2.28;;;9.40;99.90;;;;;;5073736;28;20031;-45
2022/12/24 05:33:14;;;;;;;9.23;2.17;;;9.40;99.90;;;;;;5073775;28;20096;-44
2022/12/24 05:35:41;;;;;;;5.60;1.90;;;9.40;99.90;;;;;;5075319;28;20033;-46
2022/12/24 05:38:07;;;;;;;4.13;1.80;;;9.40;99.90;;;;;;5073396;28;20029;-47
2022/12/24 05:40:32;;;;;;;5.90;1.88;;;9.40;99.90;;;;;;5073102;28;20166;-45
2022/12/24 05:42:58;;;;;;;5.82;2.00;;;9.40;99.90;;;;;;5073032;28;20024;-46
2022/12/24 05:45:24;;;;;;;8.25;1.83;;;9.30;99.90;;;;;;5072942;28;20123;-45
2022/12/24 05:47:49;;;;;;;3.35;1.67;;;9.30;99.90;;;;;;5072768;28;20025;-45
2022/12/24 05:50:15;;;;;;;5.10;1.73;;;9.40;99.90;;;;;;5072975;28;20020;-46
2022/12/24 05:52:41;;;;;;;6.28;1.70;;;9.40;99.90;;;;;;5074312;28;20090;-45
2022/12/24 05:55:07;;;;;;;6.60;2.30;;;9.30;99.90;;;;;;5072665;28;20048;-46
2022/12/24 05:57:33;;;;;;;8.27;1.88;;;9.40;99.90;;;;;;5072429;28;20032;-46
2022/12/24 05:59:59;;;;;;;5.18;1.75;;;9.30;99.90;;;;;;5073527;28;20024;-46
2022/12/24 06:02:24;;;;;;;8.48;1.90;;;9.30;99.90;;;;;;5073480;28;20028;-45
2022/12/24 06:04:50;;;;;;;5.28;1.65;;;9.30;99.90;;;;;;5073390;28;20375;-45
2022/12/24 06:07:15;;;;;;;8.50;2.33;;;9.30;99.90;;;;;;5075342;28;20103;-45
2022/12/24 06:09:41;;;;;;;4.45;1.83;;;9.30;99.90;;;;;;5072341;28;20028;-44
2022/12/24 06:12:07;;;;;;;3.63;1.75;;;9.30;99.90;;;;;;5072682;28;20024;-45
2022/12/24 06:14:32;;;;;;;6.25;2.25;;;9.30;99.90;;;;;;5073448;28;20075;-45
2022/12/24 06:16:58;;;;;;;6.82;2.15;;;9.30;99.90;;;;;;5072146;28;20024;-44
2022/12/24 06:19:23;;;;;;;6.22;2.00;;;9.30;99.90;;;;;;5073500;28;20028;-45
2022/12/24 06:21:49;;;;;;;4.45;2.05;;;9.30;99.90;;;;;;5072842;28;20107;-45
2022/12/24 06:24:15;;;;;;;7.20;2.05;;;9.30;99.90;;;;;;5072126;28;20067;-46
2022/12/24 06:26:40;;;;;;;4.38;2.05;;;9.30;99.90;;;;;;5070671;28;20035;-46
2022/12/24 06:29:06;;;;;;;7.57;2.15;;;9.30;99.90;;;;;;5073476;28;20028;-45
2022/12/24 06:31:32;;;;;;;7.47;2.10;;;9.30;99.90;;;;;;5073582;28;20048;-45
2022/12/24 06:33:57;;;;;;;5.45;1.88;;;9.30;99.90;;;;;;5071745;28;20032;-45
2022/12/24 06:36:24;;;;;;;4.50;2.30;;;9.30;99.90;;;;;;5071773;28;20017;-47
2022/12/24 06:38:51;;;;;;;7.65;2.08;;;9.30;99.90;;;;;;5071892;28;20420;-44
2022/12/24 06:41:18;;;;;;;9.52;1.80;;;9.30;99.90;;;;;;5072070;28;20028;-46
2022/12/24 06:43:48;;;;;;;4.70;1.77;;;9.30;99.90;;;;;;5071840;28;20029;-47
2022/12/24 06:46:14;;;;;;;5.25;2.00;;;9.20;99.90;;;;;;5072985;28;20024;-46
2022/12/24 06:48:41;;;;;;;6.75;2.35;;;9.30;99.90;;;;;;5071818;28;20070;-45
2022/12/24 06:51:07;;;;;;;7.47;2.20;;;9.30;99.90;;;;;;5072757;28;20111;-45
2022/12/24 06:53:32;;;;;;;5.55;1.90;;;9.20;99.90;;;;;;5071686;28;20103;-46
2022/12/24 06:56:10;;;;;;;7.43;2.10;;;9.30;99.90;;;;;;5071412;28;20119;-44
2022/12/24 06:58:36;;;;;;;4.50;1.83;;;9.20;99.90;;;;;;5072765;28;20024;-46
2022/12/24 07:01:06;;;;;;;5.78;1.90;;;9.20;99.90;;;;;;5071605;28;20514;-45
2022/12/24 07:03:32;;;;;;;6.93;2.10;;;9.20;99.90;;;;;;5071435;28;20060;-46
2022/12/24 07:05:58;;;;;;;6.05;2.03;;;9.20;99.90;;;;;;5071276;28;20052;-45
2022/12/24 07:08:24;;;;;;;8.00;2.08;;;9.20;99.90;;;;;;5071422;28;20039;-45
2022/12/24 07:10:50;;;;;;;6.57;1.92;;;9.20;99.90;;;;;;5072026;28;20047;-45
2022/12/24 07:13:17;;;;;;;5.70;1.98;;;9.20;99.90;;;;;;5073173;28;20467;-45
2022/12/24 07:15:43;;;;;;;4.18;1.70;;;9.20;99.90;;;;;;5071158;28;20024;-45
2022/12/24 07:18:08;;;;;;;7.47;2.08;;;9.20;99.90;;;;;;5072657;28;20032;-45
2022/12/24 07:20:34;;;;;;;4.95;1.73;;;9.20;99.90;;;;;;5071356;28;20020;-46
2022/12/24 07:22:59;;;;;;;7.38;2.10;;;9.20;99.90;;;;;;5071322;28;20513;-46
2022/12/24 07:25:25;;;;;;;5.63;1.70;;;9.20;99.90;;;;;;5071264;28;20028;-44
2022/12/24 07:27:51;;;;;;;3.70;1.50;;;9.20;99.90;;;;;;5071077;28;20016;-45
2022/12/24 07:30:16;;;;;;;7.10;2.10;;;9.20;99.90;;;;;;5071242;28;20016;-46
2022/12/24 07:32:42;;;;;;;7.13;1.88;;;9.20;99.90;;;;;;5071286;28;20356;-45
2022/12/24 07:35:08;;;;;;;6.45;1.85;;;9.20;99.90;;;;;;5071392;28;20025;-45
2022/12/24 07:37:34;;;;;;;8.23;2.22;;;9.10;99.90;;;;;;5070860;28;20119;-45
2022/12/24 07:40:01;;;;;;;5.95;1.77;;;9.20;99.90;;;;;;5071234;28;20104;-45
2022/12/24 07:42:26;;;;;;;5.72;1.83;;;9.10;99.90;;;;;;5072980;28;20544;-46
2022/12/24 07:44:52;;;;;;;9.20;2.08;;;9.20;99.90;;;;;;5073188;28;20025;-45
2022/12/24 07:47:18;;;;;;;7.32;2.08;;;9.10;99.90;;;;;;5075060;28;20020;-45
2022/12/24 07:49:43;;;;;;;5.15;1.58;;;9.10;99.90;;;;;;5075223;28;20509;-45
2022/12/24 07:52:09;;;;;;;6.53;2.58;;;9.10;99.90;;;;;;5075213;28;20028;-45
2022/12/24 07:54:35;;;;;;;8.55;2.22;;;9.10;99.90;;;;;;5077372;28;20028;-46
2022/12/24 07:57:00;;;;;;;7.82;2.28;;;9.10;99.90;;;;;;5074936;28;20032;-45
2022/12/24 07:59:26;;;;;;;13.40;2.60;;;9.10;99.90;;;;;;5075623;28;20443;-44
2022/12/24 08:01:51;;;;;;;4.72;2.05;;;9.10;99.90;;;;;;5077178;28;20031;-45
2022/12/24 08:04:17;;;;;;;8.77;2.33;;;9.10;99.90;;;;;;5074858;28;20501;-46
2022/12/24 08:06:43;;;;;;;5.72;2.15;;;9.10;99.90;;;;;;5074604;28;20115;-45
2022/12/24 08:09:08;;;;;;;8.32;2.53;;;9.10;99.90;;;;;;5075330;28;20056;-45
2022/12/24 08:11:34;;;;;;;4.55;1.80;;;9.10;99.90;;;;;;5077958;28;20028;-45
2022/12/24 08:13:59;;;;;;;5.65;2.10;;;9.10;99.90;;;;;;5074780;28;20024;-45
2022/12/24 08:16:25;;;;;;;10.10;3.08;;;9.10;99.90;;;;;;5074439;28;20020;-46
2022/12/24 08:18:51;;;;;;;5.40;2.20;;;9.10;99.90;;;;;;5074682;28;20028;-44
2022/12/24 08:21:16;;;;;;;5.38;1.98;;;9.10;99.90;;;;;;5075421;28;20020;-45
2022/12/24 08:23:42;;;;;;;7.03;2.40;;;9.10;99.90;;;;;;5074517;28;20021;-45
2022/12/24 08:26:09;;;;;;;6.68;2.22;;;9.10;99.90;;;;;;5074193;28;20021;-45
2022/12/24 08:28:35;;;;;;;7.32;2.20;;;9.10;99.90;;;;;;5075227;28;20035;-45
2022/12/24 08:31:01;;;;;;;6.97;2.10;;;9.10;99.90;;;;;;5074833;28;20029;-45
2022/12/24 08:33:27;;;;;;;11.07;2.58;;;9.10;99.90;;;;;;5074465;28;20055;-45
2022/12/24 08:35:54;;;;;;;8.20;2.70;;;9.10;99.90;;;;;;5074052;28;20020;-46
2022/12/24 08:38:20;;;;;;;7.40;2.97;;;9.10;99.90;;;;;;5074764;28;20024;-46
2022/12/24 08:40:48;;;;;;;8.80;3.50;;;9.10;99.90;;;;;;5074160;28;20024;-46
2022/12/24 08:43:15;;;;;;;7.45;2.88;;;9.10;99.90;;;;;;5074144;28;20363;-46
2022/12/24 08:45:40;;;;;;;8.55;3.22;;;9.10;99.90;;;;;;5075771;28;20420;-45
2022/12/24 08:48:07;;;;;;;6.13;2.45;;;9.10;99.90;;;;;;5073941;28;20115;-45
2022/12/24 08:50:33;;;;;;;6.15;2.50;;;9.10;99.90;;;;;;5074191;28;20036;-46
2022/12/24 08:52:59;;;;;;;4.57;2.42;;;9.10;99.90;;;;;;5074058;28;20498;-45
2022/12/24 08:55:24;;;;;;;5.95;2.50;;;9.10;99.90;;;;;;5073679;28;20036;-45
2022/12/24 08:57:50;;;;;;;8.80;2.60;;;9.10;99.90;;;;;;5073426;28;20085;-44
2022/12/24 09:00:16;;;;;;;8.95;2.67;;;9.20;99.90;;;;;;5073895;28;20382;-45
2022/12/24 09:02:42;;;;;;;5.72;2.63;;;9.20;99.90;;;;;;5073885;28;20036;-44
2022/12/24 09:05:08;;;;;;;7.80;2.63;;;9.20;99.90;;;;;;5073701;28;20497;-45
2022/12/24 09:07:33;;;;;;;8.50;2.53;;;9.20;99.90;;;;;;5073504;28;20082;-46
2022/12/24 09:09:59;;;;;;;8.95;2.85;;;9.20;99.90;;;;;;5073641;28;20026;-45
2022/12/24 09:12:24;;;;;;;6.40;2.90;;;9.20;99.90;;;;;;5073703;28;20432;-45
2022/12/24 09:14:51;;;;;;;6.18;2.75;;;9.20;99.90;;;;;;5073624;28;20033;-44
2022/12/24 09:17:17;;;;;;;10.40;2.70;;;9.20;99.90;;;;;;5073330;28;20479;-45
2022/12/24 09:19:42;;;;;;;10.52;2.90;;;9.20;99.90;;;;;;5073707;28;20043;-45
2022/12/24 09:22:08;;;;;;;7.38;2.53;;;9.20;99.90;;;;;;5073526;28;20059;-46
2022/12/24 09:24:35;;;;;;;7.38;2.65;;;9.30;99.90;;;;;;5073238;28;20040;-45
2022/12/24 09:27:01;;;;;;;12.32;3.08;;;9.20;99.90;;;;;;5073734;28;20364;-45
2022/12/24 09:29:27;;;;;;;8.30;2.60;;;9.30;99.90;;;;;;5073398;28;20028;-45
2022/12/24 09:31:54;;;;;;;8.20;2.80;;;9.30;99.90;;;;;;5073421;28;20390;-45
2022/12/24 09:34:21;;;;;;;8.85;2.55;;;9.30;99.90;;;;;;5074797;28;20032;-46
2022/12/24 09:36:47;;;;;;;6.00;2.42;;;9.30;99.90;;;;;;5071972;28;20474;-45
2022/12/24 09:39:13;;;;;;;8.82;2.97;;;9.30;99.90;;;;;;5073114;28;20039;-46
2022/12/24 09:42:36;;;;;;;6.85;2.70;;;9.30;99.90;;;;;;5074894;28;20493;-45
2022/12/24 09:45:29;;;;;;;8.52;2.85;;;9.30;99.90;;;;;;5011399;28;20080;-45
2022/12/24 09:48:23;;;;;;;8.70;2.90;;;9.30;99.90;;;;;;5063590;28;20493;-45
2022/12/24 09:51:05;;;;;;;11.95;3.08;;;9.30;99.90;;;;;;5074191;28;20098;-46
2022/12/24 09:53:46;;;;;;;10.18;2.83;;;9.30;99.90;;;;;;5072885;28;20024;-45
2022/12/24 09:56:19;;;;;;;8.85;3.20;;;9.30;99.90;;;;;;5073566;28;20036;-46
2022/12/24 09:58:49;;;;;;;7.32;2.80;;;9.30;99.90;;;;;;5072895;28;20021;-45
2022/12/24 10:01:16;;;;;;;9.70;2.90;;;9.30;99.90;;;;;;5074286;28;20557;-46
2022/12/24 10:03:43;;;;;;;10.90;3.17;;;9.30;99.90;;;;;;5072587;28;20094;-44
2022/12/24 10:06:26;;;;;;;9.43;3.00;;;9.30;99.90;;;;;;5072323;28;20119;-45
2022/12/24 10:09:01;;;;;;;7.93;3.03;;;9.40;99.90;;;;;;5071947;28;20024;-45
2022/12/24 10:11:41;;;;;;;7.50;3.08;;;9.40;99.90;;;;;;5072575;28;20028;-45
2022/12/24 10:14:29;;;;;;;12.40;3.22;;;9.40;99.90;;;;;;5072598;28;20513;-45
2022/12/24 10:17:36;;;;;;;14.63;3.88;;;9.40;99.90;;;;;;5072521;28;20033;-45
2022/12/24 10:20:35;;;;;;;10.65;2.90;;;9.40;99.90;;;;;;5010259;28;20037;-46
2022/12/24 10:23:11;;;;;;;7.97;2.80;;;9.40;99.90;;;;;;5010622;28;20117;-45
2022/12/24 10:26:06;;;;;;;8.38;2.90;;;9.50;99.90;;;;;;5058962;28;20116;-46
2022/12/24 10:28:50;;;;;;;7.80;3.22;;;9.50;99.90;;;;;;5072287;28;20028;-45
2022/12/24 10:31:21;;;;;;;10.07;3.17;;;9.50;99.90;;;;;;5072089;28;20052;-45
2022/12/24 10:33:52;;;;;;;14.00;2.80;;;9.50;99.90;;;;;;5072178;28;20066;-45
2022/12/24 10:36:23;;;;;;;9.88;3.00;;;9.50;99.90;;;;;;5071894;28;20095;-45
2022/12/24 10:38:49;;;;;;;10.25;3.45;;;9.50;99.90;;;;;;5072566;28;20025;-45
2022/12/24 10:41:16;;;;;;;9.70;3.53;;;9.50;99.90;;;;;;5072662;28;20089;-44
2022/12/24 10:43:44;;;;;;;12.50;3.40;;;9.50;99.90;;;;;;5071708;28;20440;-46
2022/12/24 10:46:20;;;;;;;12.18;3.42;;;9.50;99.90;;;;;;5071598;28;20020;-46
2022/12/24 10:49:00;;;;;;;11.65;2.95;;;9.50;99.90;;;;;;5071816;28;20071;-45
2022/12/24 10:51:32;;;;;;;7.60;2.85;;;9.50;99.90;;;;;;5071817;28;20099;-45
2022/12/24 10:54:06;;;;;;;12.00;3.08;;;9.50;99.90;;;;;;5071610;28;20081;-45
2022/12/24 10:56:38;;;;;;;10.95;3.28;;;9.50;99.90;;;;;;5071499;28;20082;-44
2022/12/24 10:59:03;;;;;;;10.85;2.67;;;9.50;99.90;;;;;;5071708;28;20028;-45
2022/12/24 11:01:43;;;;;;;11.35;3.13;;;9.50;99.90;;;;;;5071668;28;20024;-45
2022/12/24 11:04:17;;;;;;;9.57;2.88;;;9.50;99.90;;;;;;5071523;28;20116;-45
2022/12/24 11:07:16;;;;;;;11.27;3.13;;;9.50;99.90;;;;;;5072197;28;20048;-45
2022/12/24 11:09:52;;;;;;;15.50;2.97;;;9.50;99.90;;;;;;5071859;28;20170;-46
2022/12/24 11:12:22;;;;;;;9.55;3.20;;;9.50;99.90;;;;;;5071536;28;20502;-46
2022/12/24 11:14:57;;;;;;;9.43;3.22;;;9.50;99.90;;;;;;5071417;28;20111;-46
2022/12/24 11:17:23;;;;;;;9.13;2.95;;;9.50;99.90;;;;;;5071362;28;20024;-45
2022/12/24 11:19:49;;;;;;;8.73;3.08;;;9.50;99.90;;;;;;5071769;28;20025;-47
2022/12/24 11:22:26;;;;;;;14.18;3.55;;;9.50;99.90;;;;;;5071493;28;20028;-45
2022/12/24 11:25:06;;;;;;;10.98;3.28;;;9.50;99.90;;;;;;5072025;28;20037;-46
2022/12/24 11:27:46;;;;;;;8.65;3.00;;;9.50;99.90;;;;;;5071547;28;20028;-45
2022/12/24 11:30:14;;;;;;;14.65;3.60;;;9.50;99.90;;;;;;5071489;28;20422;-44
2022/12/24 11:32:44;;;;;;;16.27;4.07;;;9.40;99.90;;;;;;5071569;28;20508;-45
2022/12/24 11:35:15;;;;;;;8.80;2.80;;;9.40;99.90;;;;;;5071342;28;20028;-47
2022/12/24 11:37:41;;;;;;;10.65;3.25;;;9.40;99.90;;;;;;5072727;28;20039;-45
2022/12/24 11:40:22;;;;;;;11.25;3.15;;;9.50;99.90;;;;;;5073337;28;20037;-44
2022/12/24 11:42:52;;;;;;;7.97;3.20;;;9.40;99.90;;;;;;5072210;28;20493;-45
2022/12/24 11:45:27;;;;;;;13.15;2.92;;;9.50;99.90;;;;;;5071641;28;20043;-47
2022/12/24 11:47:54;;;;;;;8.82;2.85;;;9.40;99.90;;;;;;5070897;28;20028;-45
2022/12/24 11:50:34;;;;;;;10.60;3.30;;;9.40;99.90;;;;;;5070992;28;20147;-45
2022/12/24 11:53:03;;;;;;;16.80;3.10;;;9.40;99.90;;;;;;5071132;28;20021;-46
2022/12/24 11:55:48;;;;;;;9.52;2.97;;;9.40;99.90;;;;;;5072110;28;20094;-45
2022/12/24 11:58:26;;;;;;;8.95;2.78;;;9.40;99.90;;;;;;5072002;28;20486;-46
2022/12/24 12:01:16;;;;;;;9.45;2.83;;;9.40;99.90;;;;;;5070881;28;20063;-45
2022/12/24 12:03:47;;;;;;;8.40;2.85;;;9.40;99.90;;;;;;5071230;28;20028;-44
2022/12/24 12:06:28;;;;;;;10.13;2.92;;;9.50;99.90;;;;;;5070614;28;20359;-45
2022/12/24 12:09:12;;;;;;;14.98;3.35;;;9.40;99.90;;;;;;5070974;28;20505;-45
2022/12/24 12:11:41;;;;;;;13.07;3.22;;;9.50;99.90;;;;;;5070707;28;20051;-47
2022/12/24 12:14:17;;;;;;;9.80;3.10;;;9.50;99.90;;;;;;5070851;28;20040;-46
2022/12/24 12:16:59;;;;;;;16.02;3.35;;;9.50;99.90;;;;;;5071167;28;20592;-47
2022/12/24 12:19:38;;;;;;;13.77;3.45;;;9.50;99.90;;;;;;5070893;28;20032;-45
2022/12/24 12:22:10;;;;;;;10.35;3.08;;;9.40;99.90;;;;;;5071044;28;20059;-45
2022/12/24 12:24:42;;;;;;;12.02;3.47;;;9.50;99.90;;;;;;5070940;28;20393;-45
2022/12/24 12:27:08;;;;;;;10.40;2.95;;;9.50;99.90;;;;;;5071044;28;20023;-45
2022/12/24 12:29:44;;;;;;;12.05;3.30;;;9.50;99.90;;;;;;5071471;28;20091;-46
2022/12/24 12:32:20;;;;;;;7.90;3.33;;;9.50;99.90;;;;;;5073541;28;20017;-45
2022/12/24 12:35:04;;;;;;;15.40;3.03;;;9.50;99.90;;;;;;5074849;28;20032;-45
2022/12/24 12:37:35;;;;;;;10.82;3.10;;;9.50;99.90;;;;;;5074433;28;20112;-45
2022/12/24 12:40:02;;;;;;;13.95;3.25;;;9.50;99.90;;;;;;5074438;28;20033;-46
2022/12/24 12:42:36;;;;;;;15.07;3.47;;;9.50;99.90;;;;;;5074340;28;20115;-45
2022/12/24 12:45:40;;;;;;;8.93;3.03;;;9.50;99.90;;;;;;5074119;28;20033;-45
2022/12/24 12:48:09;;;;;;;9.57;3.17;;;9.50;99.90;;;;;;5074455;28;20574;-45
2022/12/24 12:50:56;;;;;;;14.05;3.10;;;9.50;99.90;;;;;;5074112;28;20478;-45
2022/12/24 12:53:27;;;;;;;11.50;2.80;;;9.50;99.90;;;;;;5074682;28;20032;-44
2022/12/24 12:56:16;;;;;;;9.20;2.42;;;9.50;99.90;;;;;;5073707;28;20032;-45
2022/12/24 12:58:54;;;;;;;12.02;2.83;;;9.50;99.90;;;;;;5074056;28;20028;-46
2022/12/24 13:01:29;;;;;;;13.45;3.85;;;9.50;99.90;;;;;;5074583;28;20031;-45
2022/12/24 13:04:20;;;;;;;9.88;2.78;;;9.50;99.90;;;;;;5073790;28;20478;-44
2022/12/24 13:07:09;;;;;;;16.00;3.65;;;9.50;99.90;;;;;;5073632;28;20029;-45
2022/12/24 13:09:55;;;;;;;11.23;2.55;;;9.50;99.90;;;;;;5074354;28;20028;-45
2022/12/24 13:12:43;;;;;;;7.53;2.63;;;9.50;99.90;;;;;;5073883;28;20080;-45
2022/12/24 13:15:40;;;;;;;11.35;2.95;;;9.50;99.90;;;;;;5073695;28;20082;-45
2022/12/24 13:18:20;;;;;;;11.63;3.03;;;9.50;99.90;;;;;;5075995;28;20027;-45
2022/12/24 13:20:49;;;;;;;12.20;3.03;;;9.50;99.90;;;;;;5073638;28;20482;-45